sensor_id;sensor_type;location;lat;lon;timestamp;P1;durP1;ratioP1;P2;durP2;ratioP2
64738;SDS011;51175;51.186;0.276;2023-08-06T00:00:21;7.25;;;3.88;;
64738;SDS011;51175;51.186;0.276;2023-08-06T00:00:52;6.50;;;3.78;;
64738;SDS011;51175;51.186;0.276;2023-08-06T00:01:23;5.95;;;3.70;;
64738;SDS011;51175;51.186;0.276;2023-08-06T00:01:54;5.85;;;3.35;;
64738;SDS011;51175;51.186;0.276;2023-08-06T00:02:24;4.93;;;3.60;;
64738;SDS011;51175;51.186;0.276;2023-08-06T00:02:54;6.15;;;3.80;;
64738;SDS011;51175;51.186;0.276;2023-08-06T00:03:25;5.90;;;3.78;;
64738;SDS011;51175;51.186;0.276;2023-08-06T00:03:55;5.50;;;3.72;;
64738;SDS011;51175;51.186;0.276;2023-08-06T00:04:25;6.25;;;4.15;;
64738;SDS011;51175;51.186;0.276;2023-08-06T00:04:56;6.40;;;4.22;;
64738;SDS011;51175;51.186;0.276;2023-08-06T00:05:26;5.70;;;3.95;;
64738;SDS011;51175;51.186;0.276;2023-08-06T00:05:57;5.28;;;3.45;;
64738;SDS011;51175;51.186;0.276;2023-08-06T00:06:27;6.95;;;3.75;;
64738;SDS011;51175;51.186;0.276;2023-08-06T00:06:58;4.10;;;3.28;;
64738;SDS011;51175;51.186;0.276;2023-08-06T00:07:28;5.82;;;3.40;;
64738;SDS011;51175;51.186;0.276;2023-08-06T00:07:58;6.10;;;3.50;;
64738;SDS011;51175;51.186;0.276;2023-08-06T00:08:29;5.40;;;3.35;;
64738;SDS011;51175;51.186;0.276;2023-08-06T00:08:59;4.72;;;3.35;;
64738;SDS011;51175;51.186;0.276;2023-08-06T00:09:29;6.32;;;3.72;;
64738;SDS011;51175;51.186;0.276;2023-08-06T00:10:00;6.05;;;3.30;;
64738;SDS011;51175;51.186;0.276;2023-08-06T00:10:30;6.10;;;3.50;;
64738;SDS011;51175;51.186;0.276;2023-08-06T00:11:00;5.30;;;2.92;;
64738;SDS011;51175;51.186;0.276;2023-08-06T00:11:31;5.68;;;3.38;;
64738;SDS011;51175;51.186;0.276;2023-08-06T00:12:01;4.97;;;3.33;;
64738;SDS011;51175;51.186;0.276;2023-08-06T00:12:32;5.43;;;3.72;;
64738;SDS011;51175;51.186;0.276;2023-08-06T00:13:02;5.20;;;3.40;;
64738;SDS011;51175;51.186;0.276;2023-08-06T00:13:33;4.65;;;3.05;;
64738;SDS011;51175;51.186;0.276;2023-08-06T00:14:03;5.35;;;3.63;;
64738;SDS011;51175;51.186;0.276;2023-08-06T00:14:33;4.60;;;3.10;;
64738;SDS011;51175;51.186;0.276;2023-08-06T00:15:04;6.70;;;3.10;;
64738;SDS011;51175;51.186;0.276;2023-08-06T00:15:35;4.93;;;3.13;;
64738;SDS011;51175;51.186;0.276;2023-08-06T00:16:11;5.78;;;3.80;;
64738;SDS011;51175;51.186;0.276;2023-08-06T00:16:43;6.53;;;3.40;;
64738;SDS011;51175;51.186;0.276;2023-08-06T00:17:14;5.10;;;3.25;;
64738;SDS011;51175;51.186;0.276;2023-08-06T00:17:44;5.10;;;3.28;;
64738;SDS011;51175;51.186;0.276;2023-08-06T00:18:14;5.35;;;3.60;;
64738;SDS011;51175;51.186;0.276;2023-08-06T00:18:45;5.15;;;3.58;;
64738;SDS011;51175;51.186;0.276;2023-08-06T00:19:15;4.60;;;3.83;;
64738;SDS011;51175;51.186;0.276;2023-08-06T00:19:45;6.10;;;4.20;;
64738;SDS011;51175;51.186;0.276;2023-08-06T00:20:16;5.43;;;3.30;;
64738;SDS011;51175;51.186;0.276;2023-08-06T00:20:46;4.10;;;3.10;;
64738;SDS011;51175;51.186;0.276;2023-08-06T00:21:17;4.97;;;2.92;;
64738;SDS011;51175;51.186;0.276;2023-08-06T00:21:47;5.38;;;2.90;;
64738;SDS011;51175;51.186;0.276;2023-08-06T00:22:17;5.85;;;3.00;;
64738;SDS011;51175;51.186;0.276;2023-08-06T00:22:48;3.72;;;2.72;;
64738;SDS011;51175;51.186;0.276;2023-08-06T00:23:18;4.70;;;3.08;;
64738;SDS011;51175;51.186;0.276;2023-08-06T00:23:48;5.18;;;3.15;;
64738;SDS011;51175;51.186;0.276;2023-08-06T00:24:19;3.75;;;2.60;;
64738;SDS011;51175;51.186;0.276;2023-08-06T00:24:49;3.78;;;2.80;;
64738;SDS011;51175;51.186;0.276;2023-08-06T00:25:19;3.58;;;2.38;;
64738;SDS011;51175;51.186;0.276;2023-08-06T00:25:50;4.72;;;2.70;;
64738;SDS011;51175;51.186;0.276;2023-08-06T00:26:20;4.68;;;3.13;;
64738;SDS011;51175;51.186;0.276;2023-08-06T00:26:50;4.93;;;3.00;;
64738;SDS011;51175;51.186;0.276;2023-08-06T00:27:21;6.15;;;2.80;;
64738;SDS011;51175;51.186;0.276;2023-08-06T00:27:51;4.60;;;3.22;;
64738;SDS011;51175;51.186;0.276;2023-08-06T00:28:22;5.03;;;2.47;;
64738;SDS011;51175;51.186;0.276;2023-08-06T00:28:52;5.50;;;2.85;;
64738;SDS011;51175;51.186;0.276;2023-08-06T00:29:22;3.90;;;2.45;;
64738;SDS011;51175;51.186;0.276;2023-08-06T00:29:53;4.30;;;2.83;;
64738;SDS011;51175;51.186;0.276;2023-08-06T00:30:23;6.82;;;2.85;;
64738;SDS011;51175;51.186;0.276;2023-08-06T00:30:54;3.05;;;2.42;;
64738;SDS011;51175;51.186;0.276;2023-08-06T00:31:25;5.43;;;3.08;;
64738;SDS011;51175;51.186;0.276;2023-08-06T00:31:55;4.78;;;2.38;;
64738;SDS011;51175;51.186;0.276;2023-08-06T00:32:25;5.43;;;3.05;;
64738;SDS011;51175;51.186;0.276;2023-08-06T00:32:56;4.47;;;2.45;;
64738;SDS011;51175;51.186;0.276;2023-08-06T00:33:26;4.72;;;3.05;;
64738;SDS011;51175;51.186;0.276;2023-08-06T00:33:57;4.95;;;2.22;;
64738;SDS011;51175;51.186;0.276;2023-08-06T00:34:27;4.03;;;2.03;;
64738;SDS011;51175;51.186;0.276;2023-08-06T00:34:57;4.28;;;2.45;;
64738;SDS011;51175;51.186;0.276;2023-08-06T00:35:28;4.38;;;2.65;;
64738;SDS011;51175;51.186;0.276;2023-08-06T00:36:00;4.07;;;2.55;;
64738;SDS011;51175;51.186;0.276;2023-08-06T00:36:30;3.08;;;2.25;;
64738;SDS011;51175;51.186;0.276;2023-08-06T00:37:00;3.65;;;2.85;;
64738;SDS011;51175;51.186;0.276;2023-08-06T00:37:31;3.35;;;1.95;;
64738;SDS011;51175;51.186;0.276;2023-08-06T00:38:02;5.15;;;3.00;;
64738;SDS011;51175;51.186;0.276;2023-08-06T00:38:32;4.63;;;2.03;;
64738;SDS011;51175;51.186;0.276;2023-08-06T00:39:02;3.67;;;2.08;;
64738;SDS011;51175;51.186;0.276;2023-08-06T00:39:33;3.60;;;2.33;;
64738;SDS011;51175;51.186;0.276;2023-08-06T00:40:03;3.80;;;1.92;;
64738;SDS011;51175;51.186;0.276;2023-08-06T00:40:34;3.67;;;2.30;;
64738;SDS011;51175;51.186;0.276;2023-08-06T00:41:05;4.65;;;2.75;;
64738;SDS011;51175;51.186;0.276;2023-08-06T00:41:35;4.05;;;2.03;;
64738;SDS011;51175;51.186;0.276;2023-08-06T00:42:05;5.00;;;2.80;;
64738;SDS011;51175;51.186;0.276;2023-08-06T00:42:36;4.43;;;2.25;;
64738;SDS011;51175;51.186;0.276;2023-08-06T00:43:06;3.10;;;2.00;;
64738;SDS011;51175;51.186;0.276;2023-08-06T00:43:37;3.42;;;2.15;;
64738;SDS011;51175;51.186;0.276;2023-08-06T00:44:07;2.80;;;1.67;;
64738;SDS011;51175;51.186;0.276;2023-08-06T00:44:38;4.72;;;2.38;;
64738;SDS011;51175;51.186;0.276;2023-08-06T00:45:09;4.30;;;2.33;;
64738;SDS011;51175;51.186;0.276;2023-08-06T00:45:39;3.78;;;1.65;;
64738;SDS011;51175;51.186;0.276;2023-08-06T00:46:09;4.03;;;1.73;;
64738;SDS011;51175;51.186;0.276;2023-08-06T00:46:40;2.65;;;1.63;;
64738;SDS011;51175;51.186;0.276;2023-08-06T00:47:11;4.80;;;2.38;;
64738;SDS011;51175;51.186;0.276;2023-08-06T00:47:41;2.13;;;1.52;;
64738;SDS011;51175;51.186;0.276;2023-08-06T00:48:12;2.88;;;2.13;;
64738;SDS011;51175;51.186;0.276;2023-08-06T00:48:42;3.78;;;2.03;;
64738;SDS011;51175;51.186;0.276;2023-08-06T00:49:13;3.38;;;2.05;;
64738;SDS011;51175;51.186;0.276;2023-08-06T00:49:44;3.67;;;1.80;;
64738;SDS011;51175;51.186;0.276;2023-08-06T00:50:14;4.47;;;2.25;;
64738;SDS011;51175;51.186;0.276;2023-08-06T00:50:46;3.08;;;1.85;;
64738;SDS011;51175;51.186;0.276;2023-08-06T00:51:16;3.60;;;1.80;;
64738;SDS011;51175;51.186;0.276;2023-08-06T00:51:47;2.95;;;1.95;;
64738;SDS011;51175;51.186;0.276;2023-08-06T00:52:17;5.18;;;1.88;;
64738;SDS011;51175;51.186;0.276;2023-08-06T00:52:48;4.63;;;2.00;;
64738;SDS011;51175;51.186;0.276;2023-08-06T00:53:19;2.75;;;1.77;;
64738;SDS011;51175;51.186;0.276;2023-08-06T00:53:49;4.57;;;1.90;;
64738;SDS011;51175;51.186;0.276;2023-08-06T00:54:22;5.75;;;1.77;;
64738;SDS011;51175;51.186;0.276;2023-08-06T00:54:53;3.17;;;1.65;;
64738;SDS011;51175;51.186;0.276;2023-08-06T00:55:24;3.33;;;1.90;;
64738;SDS011;51175;51.186;0.276;2023-08-06T00:55:55;3.58;;;1.50;;
64738;SDS011;51175;51.186;0.276;2023-08-06T00:56:26;3.10;;;1.45;;
64738;SDS011;51175;51.186;0.276;2023-08-06T00:56:56;3.60;;;1.52;;
64738;SDS011;51175;51.186;0.276;2023-08-06T00:57:28;3.90;;;1.63;;
64738;SDS011;51175;51.186;0.276;2023-08-06T00:57:59;4.05;;;2.03;;
64738;SDS011;51175;51.186;0.276;2023-08-06T00:58:30;4.43;;;1.55;;
64738;SDS011;51175;51.186;0.276;2023-08-06T00:59:00;3.80;;;1.58;;
64738;SDS011;51175;51.186;0.276;2023-08-06T00:59:31;8.63;;;2.17;;
64738;SDS011;51175;51.186;0.276;2023-08-06T01:00:02;5.15;;;2.20;;
64738;SDS011;51175;51.186;0.276;2023-08-06T01:00:34;5.82;;;2.15;;
64738;SDS011;51175;51.186;0.276;2023-08-06T01:01:04;4.30;;;1.63;;
64738;SDS011;51175;51.186;0.276;2023-08-06T01:01:35;4.18;;;2.35;;
64738;SDS011;51175;51.186;0.276;2023-08-06T01:02:05;5.15;;;1.90;;
64738;SDS011;51175;51.186;0.276;2023-08-06T01:02:36;3.38;;;1.55;;
64738;SDS011;51175;51.186;0.276;2023-08-06T01:03:07;2.60;;;1.63;;
64738;SDS011;51175;51.186;0.276;2023-08-06T01:03:37;2.15;;;1.30;;
64738;SDS011;51175;51.186;0.276;2023-08-06T01:04:08;3.75;;;1.70;;
64738;SDS011;51175;51.186;0.276;2023-08-06T01:04:41;3.45;;;1.38;;
64738;SDS011;51175;51.186;0.276;2023-08-06T01:05:11;5.35;;;2.20;;
64738;SDS011;51175;51.186;0.276;2023-08-06T01:05:42;4.22;;;1.92;;
64738;SDS011;51175;51.186;0.276;2023-08-06T01:06:12;5.40;;;2.00;;
64738;SDS011;51175;51.186;0.276;2023-08-06T01:06:47;3.15;;;1.98;;
64738;SDS011;51175;51.186;0.276;2023-08-06T01:07:40;3.17;;;1.40;;
64738;SDS011;51175;51.186;0.276;2023-08-06T01:09:45;4.90;;;1.52;;
64738;SDS011;51175;51.186;0.276;2023-08-06T01:10:28;3.47;;;1.58;;
64738;SDS011;51175;51.186;0.276;2023-08-06T01:12:33;2.28;;;1.50;;
64738;SDS011;51175;51.186;0.276;2023-08-06T01:13:08;3.08;;;1.40;;
64738;SDS011;51175;51.186;0.276;2023-08-06T01:13:47;3.25;;;1.40;;
64738;SDS011;51175;51.186;0.276;2023-08-06T01:14:33;3.00;;;1.50;;
64738;SDS011;51175;51.186;0.276;2023-08-06T01:15:14;2.92;;;1.48;;
64738;SDS011;51175;51.186;0.276;2023-08-06T01:15:49;2.05;;;1.40;;
64738;SDS011;51175;51.186;0.276;2023-08-06T01:16:21;2.25;;;1.30;;
64738;SDS011;51175;51.186;0.276;2023-08-06T01:16:54;3.38;;;1.50;;
64738;SDS011;51175;51.186;0.276;2023-08-06T01:17:25;4.88;;;2.00;;
64738;SDS011;51175;51.186;0.276;2023-08-06T01:17:57;4.00;;;1.70;;
64738;SDS011;51175;51.186;0.276;2023-08-06T01:18:27;3.00;;;1.17;;
64738;SDS011;51175;51.186;0.276;2023-08-06T01:18:57;2.45;;;1.38;;
64738;SDS011;51175;51.186;0.276;2023-08-06T01:19:28;4.53;;;1.50;;
64738;SDS011;51175;51.186;0.276;2023-08-06T01:19:58;4.07;;;1.63;;
64738;SDS011;51175;51.186;0.276;2023-08-06T01:20:29;3.83;;;1.77;;
64738;SDS011;51175;51.186;0.276;2023-08-06T01:21:01;3.60;;;1.75;;
64738;SDS011;51175;51.186;0.276;2023-08-06T01:21:31;2.25;;;1.38;;
64738;SDS011;51175;51.186;0.276;2023-08-06T01:22:01;2.88;;;1.85;;
64738;SDS011;51175;51.186;0.276;2023-08-06T01:22:32;4.55;;;2.20;;
64738;SDS011;51175;51.186;0.276;2023-08-06T01:23:02;5.47;;;1.88;;
64738;SDS011;51175;51.186;0.276;2023-08-06T01:23:33;2.15;;;1.00;;
64738;SDS011;51175;51.186;0.276;2023-08-06T01:24:03;2.60;;;1.20;;
64738;SDS011;51175;51.186;0.276;2023-08-06T01:24:34;2.45;;;1.38;;
64738;SDS011;51175;51.186;0.276;2023-08-06T01:25:05;2.45;;;1.40;;
64738;SDS011;51175;51.186;0.276;2023-08-06T01:26:33;2.47;;;1.52;;
64738;SDS011;51175;51.186;0.276;2023-08-06T01:27:11;3.63;;;1.45;;
64738;SDS011;51175;51.186;0.276;2023-08-06T01:27:50;4.80;;;1.48;;
64738;SDS011;51175;51.186;0.276;2023-08-06T01:28:32;1.95;;;1.27;;
64738;SDS011;51175;51.186;0.276;2023-08-06T01:31:01;2.65;;;1.27;;
64738;SDS011;51175;51.186;0.276;2023-08-06T01:31:43;2.33;;;1.27;;
64738;SDS011;51175;51.186;0.276;2023-08-06T01:32:14;4.68;;;1.92;;
64738;SDS011;51175;51.186;0.276;2023-08-06T01:32:51;2.42;;;1.00;;
64738;SDS011;51175;51.186;0.276;2023-08-06T01:33:26;2.03;;;1.52;;
64738;SDS011;51175;51.186;0.276;2023-08-06T01:34:00;3.75;;;1.38;;
64738;SDS011;51175;51.186;0.276;2023-08-06T01:34:33;3.83;;;1.27;;
64738;SDS011;51175;51.186;0.276;2023-08-06T01:35:04;3.53;;;1.80;;
64738;SDS011;51175;51.186;0.276;2023-08-06T01:35:35;3.20;;;1.08;;
64738;SDS011;51175;51.186;0.276;2023-08-06T01:36:06;5.65;;;1.73;;
64738;SDS011;51175;51.186;0.276;2023-08-06T01:36:37;3.35;;;1.55;;
64738;SDS011;51175;51.186;0.276;2023-08-06T01:37:09;3.60;;;1.73;;
64738;SDS011;51175;51.186;0.276;2023-08-06T01:37:39;4.10;;;1.40;;
64738;SDS011;51175;51.186;0.276;2023-08-06T01:38:11;4.28;;;1.50;;
64738;SDS011;51175;51.186;0.276;2023-08-06T01:38:41;1.90;;;1.13;;
64738;SDS011;51175;51.186;0.276;2023-08-06T01:39:12;4.32;;;1.67;;
64738;SDS011;51175;51.186;0.276;2023-08-06T01:39:42;2.28;;;1.50;;
64738;SDS011;51175;51.186;0.276;2023-08-06T01:40:13;2.38;;;1.30;;
64738;SDS011;51175;51.186;0.276;2023-08-06T01:40:44;2.58;;;1.55;;
64738;SDS011;51175;51.186;0.276;2023-08-06T01:41:14;3.33;;;1.73;;
64738;SDS011;51175;51.186;0.276;2023-08-06T01:41:45;3.88;;;1.42;;
64738;SDS011;51175;51.186;0.276;2023-08-06T01:42:15;5.25;;;1.50;;
64738;SDS011;51175;51.186;0.276;2023-08-06T01:42:45;2.92;;;1.25;;
64738;SDS011;51175;51.186;0.276;2023-08-06T01:43:16;2.67;;;1.40;;
64738;SDS011;51175;51.186;0.276;2023-08-06T01:43:46;2.65;;;1.40;;
64738;SDS011;51175;51.186;0.276;2023-08-06T01:44:16;2.42;;;1.40;;
64738;SDS011;51175;51.186;0.276;2023-08-06T01:44:47;3.28;;;1.30;;
64738;SDS011;51175;51.186;0.276;2023-08-06T01:45:18;2.17;;;1.10;;
64738;SDS011;51175;51.186;0.276;2023-08-06T01:45:48;2.80;;;1.25;;
64738;SDS011;51175;51.186;0.276;2023-08-06T01:46:18;3.38;;;1.45;;
64738;SDS011;51175;51.186;0.276;2023-08-06T01:46:49;3.25;;;1.25;;
64738;SDS011;51175;51.186;0.276;2023-08-06T01:47:19;1.95;;;1.20;;
64738;SDS011;51175;51.186;0.276;2023-08-06T01:47:50;3.40;;;1.80;;
64738;SDS011;51175;51.186;0.276;2023-08-06T01:48:20;2.67;;;1.23;;
64738;SDS011;51175;51.186;0.276;2023-08-06T01:48:50;2.75;;;1.30;;
64738;SDS011;51175;51.186;0.276;2023-08-06T01:49:21;4.65;;;1.58;;
64738;SDS011;51175;51.186;0.276;2023-08-06T01:49:51;2.65;;;1.38;;
64738;SDS011;51175;51.186;0.276;2023-08-06T01:50:21;3.05;;;1.73;;
64738;SDS011;51175;51.186;0.276;2023-08-06T01:50:52;5.55;;;1.50;;
64738;SDS011;51175;51.186;0.276;2023-08-06T01:51:22;2.97;;;1.70;;
64738;SDS011;51175;51.186;0.276;2023-08-06T01:51:52;2.10;;;1.45;;
64738;SDS011;51175;51.186;0.276;2023-08-06T01:52:23;3.00;;;1.70;;
64738;SDS011;51175;51.186;0.276;2023-08-06T01:52:53;2.47;;;1.30;;
64738;SDS011;51175;51.186;0.276;2023-08-06T01:53:23;3.25;;;1.63;;
64738;SDS011;51175;51.186;0.276;2023-08-06T01:53:54;2.58;;;1.23;;
64738;SDS011;51175;51.186;0.276;2023-08-06T01:54:24;4.05;;;1.33;;
64738;SDS011;51175;51.186;0.276;2023-08-06T01:54:54;2.97;;;1.10;;
64738;SDS011;51175;51.186;0.276;2023-08-06T01:55:25;3.45;;;1.45;;
64738;SDS011;51175;51.186;0.276;2023-08-06T01:55:55;2.90;;;1.45;;
64738;SDS011;51175;51.186;0.276;2023-08-06T01:56:26;4.82;;;1.52;;
64738;SDS011;51175;51.186;0.276;2023-08-06T01:56:56;2.25;;;1.20;;
64738;SDS011;51175;51.186;0.276;2023-08-06T01:57:28;2.67;;;1.58;;
64738;SDS011;51175;51.186;0.276;2023-08-06T01:57:58;5.10;;;2.20;;
64738;SDS011;51175;51.186;0.276;2023-08-06T01:58:29;2.65;;;1.67;;
64738;SDS011;51175;51.186;0.276;2023-08-06T01:58:59;4.25;;;1.58;;
64738;SDS011;51175;51.186;0.276;2023-08-06T01:59:29;2.42;;;1.35;;
64738;SDS011;51175;51.186;0.276;2023-08-06T02:00:00;2.78;;;1.33;;
64738;SDS011;51175;51.186;0.276;2023-08-06T02:00:30;4.60;;;2.58;;
64738;SDS011;51175;51.186;0.276;2023-08-06T02:01:01;2.08;;;1.10;;
64738;SDS011;51175;51.186;0.276;2023-08-06T02:01:31;3.08;;;1.45;;
64738;SDS011;51175;51.186;0.276;2023-08-06T02:02:02;3.03;;;1.20;;
64738;SDS011;51175;51.186;0.276;2023-08-06T02:02:32;2.45;;;1.40;;
64738;SDS011;51175;51.186;0.276;2023-08-06T02:03:03;5.05;;;1.48;;
64738;SDS011;51175;51.186;0.276;2023-08-06T02:03:34;3.25;;;1.50;;
64738;SDS011;51175;51.186;0.276;2023-08-06T02:04:04;2.25;;;1.20;;
64738;SDS011;51175;51.186;0.276;2023-08-06T02:04:35;2.47;;;1.15;;
64738;SDS011;51175;51.186;0.276;2023-08-06T02:05:05;4.88;;;1.80;;
64738;SDS011;51175;51.186;0.276;2023-08-06T02:05:36;2.08;;;1.20;;
64738;SDS011;51175;51.186;0.276;2023-08-06T02:06:06;3.10;;;1.42;;
64738;SDS011;51175;51.186;0.276;2023-08-06T02:06:36;2.08;;;1.55;;
64738;SDS011;51175;51.186;0.276;2023-08-06T02:07:07;2.83;;;1.05;;
64738;SDS011;51175;51.186;0.276;2023-08-06T02:07:37;4.03;;;1.42;;
64738;SDS011;51175;51.186;0.276;2023-08-06T02:08:07;3.28;;;1.30;;
64738;SDS011;51175;51.186;0.276;2023-08-06T02:08:38;6.03;;;1.70;;
64738;SDS011;51175;51.186;0.276;2023-08-06T02:09:09;5.90;;;1.48;;
64738;SDS011;51175;51.186;0.276;2023-08-06T02:09:40;2.05;;;1.30;;
64738;SDS011;51175;51.186;0.276;2023-08-06T02:10:10;3.67;;;1.48;;
64738;SDS011;51175;51.186;0.276;2023-08-06T02:10:40;2.80;;;1.15;;
64738;SDS011;51175;51.186;0.276;2023-08-06T02:11:11;5.30;;;2.30;;
64738;SDS011;51175;51.186;0.276;2023-08-06T02:11:42;3.20;;;1.30;;
64738;SDS011;51175;51.186;0.276;2023-08-06T02:12:12;3.17;;;1.45;;
64738;SDS011;51175;51.186;0.276;2023-08-06T02:12:42;7.55;;;2.95;;
64738;SDS011;51175;51.186;0.276;2023-08-06T02:13:12;2.60;;;1.42;;
64738;SDS011;51175;51.186;0.276;2023-08-06T02:13:43;4.03;;;1.60;;
64738;SDS011;51175;51.186;0.276;2023-08-06T02:14:13;2.88;;;1.40;;
64738;SDS011;51175;51.186;0.276;2023-08-06T02:14:44;4.47;;;1.60;;
64738;SDS011;51175;51.186;0.276;2023-08-06T02:15:14;3.08;;;1.38;;
64738;SDS011;51175;51.186;0.276;2023-08-06T02:15:45;4.25;;;1.58;;
64738;SDS011;51175;51.186;0.276;2023-08-06T02:16:18;4.03;;;1.65;;
64738;SDS011;51175;51.186;0.276;2023-08-06T02:16:49;2.15;;;1.38;;
64738;SDS011;51175;51.186;0.276;2023-08-06T02:17:20;4.50;;;1.77;;
64738;SDS011;51175;51.186;0.276;2023-08-06T02:17:50;2.90;;;1.73;;
64738;SDS011;51175;51.186;0.276;2023-08-06T02:18:20;2.67;;;1.30;;
64738;SDS011;51175;51.186;0.276;2023-08-06T02:18:51;2.10;;;1.38;;
64738;SDS011;51175;51.186;0.276;2023-08-06T02:19:21;4.43;;;1.50;;
64738;SDS011;51175;51.186;0.276;2023-08-06T02:19:51;3.15;;;1.38;;
64738;SDS011;51175;51.186;0.276;2023-08-06T02:20:22;5.13;;;1.45;;
64738;SDS011;51175;51.186;0.276;2023-08-06T02:20:58;3.38;;;1.50;;
64738;SDS011;51175;51.186;0.276;2023-08-06T02:21:29;3.85;;;1.50;;
64738;SDS011;51175;51.186;0.276;2023-08-06T02:21:59;3.20;;;1.42;;
64738;SDS011;51175;51.186;0.276;2023-08-06T02:22:30;2.85;;;1.38;;
64738;SDS011;51175;51.186;0.276;2023-08-06T02:23:00;2.25;;;1.38;;
64738;SDS011;51175;51.186;0.276;2023-08-06T02:23:30;2.20;;;1.55;;
64738;SDS011;51175;51.186;0.276;2023-08-06T02:24:00;3.15;;;1.67;;
64738;SDS011;51175;51.186;0.276;2023-08-06T02:24:31;5.45;;;1.83;;
64738;SDS011;51175;51.186;0.276;2023-08-06T02:25:02;1.77;;;1.17;;
64738;SDS011;51175;51.186;0.276;2023-08-06T02:25:32;1.80;;;1.25;;
64738;SDS011;51175;51.186;0.276;2023-08-06T02:26:03;4.15;;;1.60;;
64738;SDS011;51175;51.186;0.276;2023-08-06T02:26:34;3.22;;;1.40;;
64738;SDS011;51175;51.186;0.276;2023-08-06T02:27:05;4.20;;;1.20;;
64738;SDS011;51175;51.186;0.276;2023-08-06T02:27:36;3.20;;;1.35;;
64738;SDS011;51175;51.186;0.276;2023-08-06T02:28:07;3.63;;;1.75;;
64738;SDS011;51175;51.186;0.276;2023-08-06T02:28:37;3.35;;;1.30;;
64738;SDS011;51175;51.186;0.276;2023-08-06T02:29:08;2.65;;;1.33;;
64738;SDS011;51175;51.186;0.276;2023-08-06T02:29:39;2.22;;;1.50;;
64738;SDS011;51175;51.186;0.276;2023-08-06T02:30:11;3.15;;;1.52;;
64738;SDS011;51175;51.186;0.276;2023-08-06T02:30:49;2.67;;;1.58;;
64738;SDS011;51175;51.186;0.276;2023-08-06T02:31:20;2.58;;;1.70;;
64738;SDS011;51175;51.186;0.276;2023-08-06T02:31:50;4.15;;;1.63;;
64738;SDS011;51175;51.186;0.276;2023-08-06T02:32:21;3.67;;;1.55;;
64738;SDS011;51175;51.186;0.276;2023-08-06T02:32:52;3.35;;;1.83;;
64738;SDS011;51175;51.186;0.276;2023-08-06T02:33:22;4.53;;;2.72;;
64738;SDS011;51175;51.186;0.276;2023-08-06T02:33:52;2.53;;;1.48;;
64738;SDS011;51175;51.186;0.276;2023-08-06T02:34:24;2.33;;;1.38;;
64738;SDS011;51175;51.186;0.276;2023-08-06T02:34:54;2.17;;;1.33;;
64738;SDS011;51175;51.186;0.276;2023-08-06T02:35:25;3.05;;;1.55;;
64738;SDS011;51175;51.186;0.276;2023-08-06T02:35:58;2.72;;;1.65;;
64738;SDS011;51175;51.186;0.276;2023-08-06T02:36:30;2.78;;;1.50;;
64738;SDS011;51175;51.186;0.276;2023-08-06T02:37:01;2.38;;;1.45;;
64738;SDS011;51175;51.186;0.276;2023-08-06T02:37:34;3.90;;;1.52;;
64738;SDS011;51175;51.186;0.276;2023-08-06T02:38:05;6.10;;;1.80;;
64738;SDS011;51175;51.186;0.276;2023-08-06T02:38:35;2.50;;;1.50;;
64738;SDS011;51175;51.186;0.276;2023-08-06T02:39:05;5.30;;;1.70;;
64738;SDS011;51175;51.186;0.276;2023-08-06T02:39:36;2.58;;;1.90;;
64738;SDS011;51175;51.186;0.276;2023-08-06T02:40:09;5.15;;;1.48;;
64738;SDS011;51175;51.186;0.276;2023-08-06T02:40:46;2.58;;;1.40;;
64738;SDS011;51175;51.186;0.276;2023-08-06T02:41:16;4.10;;;2.63;;
64738;SDS011;51175;51.186;0.276;2023-08-06T02:41:47;2.92;;;1.50;;
64738;SDS011;51175;51.186;0.276;2023-08-06T02:42:18;3.22;;;1.38;;
64738;SDS011;51175;51.186;0.276;2023-08-06T02:42:48;3.40;;;1.92;;
64738;SDS011;51175;51.186;0.276;2023-08-06T02:43:18;2.53;;;1.73;;
64738;SDS011;51175;51.186;0.276;2023-08-06T02:43:49;3.10;;;1.50;;
64738;SDS011;51175;51.186;0.276;2023-08-06T02:44:19;4.47;;;1.90;;
64738;SDS011;51175;51.186;0.276;2023-08-06T02:44:50;2.85;;;1.33;;
64738;SDS011;51175;51.186;0.276;2023-08-06T02:45:20;3.95;;;1.38;;
64738;SDS011;51175;51.186;0.276;2023-08-06T02:45:50;2.92;;;1.70;;
64738;SDS011;51175;51.186;0.276;2023-08-06T02:46:21;3.25;;;1.48;;
64738;SDS011;51175;51.186;0.276;2023-08-06T02:46:51;2.45;;;1.65;;
64738;SDS011;51175;51.186;0.276;2023-08-06T02:47:21;3.10;;;1.60;;
64738;SDS011;51175;51.186;0.276;2023-08-06T02:47:52;3.45;;;1.70;;
64738;SDS011;51175;51.186;0.276;2023-08-06T02:48:22;3.50;;;1.25;;
64738;SDS011;51175;51.186;0.276;2023-08-06T02:48:53;2.85;;;1.73;;
64738;SDS011;51175;51.186;0.276;2023-08-06T02:49:23;2.45;;;1.77;;
64738;SDS011;51175;51.186;0.276;2023-08-06T02:49:53;3.88;;;1.85;;
64738;SDS011;51175;51.186;0.276;2023-08-06T02:50:24;3.75;;;1.85;;
64738;SDS011;51175;51.186;0.276;2023-08-06T02:50:57;4.93;;;2.38;;
64738;SDS011;51175;51.186;0.276;2023-08-06T02:51:29;4.82;;;2.03;;
64738;SDS011;51175;51.186;0.276;2023-08-06T02:51:59;3.67;;;2.13;;
64738;SDS011;51175;51.186;0.276;2023-08-06T02:52:29;3.70;;;1.80;;
64738;SDS011;51175;51.186;0.276;2023-08-06T02:53:00;2.17;;;1.52;;
64738;SDS011;51175;51.186;0.276;2023-08-06T02:53:30;2.88;;;1.90;;
64738;SDS011;51175;51.186;0.276;2023-08-06T02:54:01;2.65;;;1.73;;
64738;SDS011;51175;51.186;0.276;2023-08-06T02:54:31;3.67;;;1.65;;
64738;SDS011;51175;51.186;0.276;2023-08-06T02:55:02;4.15;;;1.95;;
64738;SDS011;51175;51.186;0.276;2023-08-06T02:55:33;2.72;;;2.10;;
64738;SDS011;51175;51.186;0.276;2023-08-06T02:56:04;3.33;;;1.60;;
64738;SDS011;51175;51.186;0.276;2023-08-06T02:56:34;3.95;;;2.05;;
64738;SDS011;51175;51.186;0.276;2023-08-06T02:57:05;3.15;;;1.85;;
64738;SDS011;51175;51.186;0.276;2023-08-06T02:57:35;4.93;;;1.60;;
64738;SDS011;51175;51.186;0.276;2023-08-06T02:58:06;1.90;;;1.50;;
64738;SDS011;51175;51.186;0.276;2023-08-06T02:58:36;2.85;;;1.52;;
64738;SDS011;51175;51.186;0.276;2023-08-06T02:59:06;3.70;;;1.80;;
64738;SDS011;51175;51.186;0.276;2023-08-06T02:59:37;2.53;;;1.52;;
64738;SDS011;51175;51.186;0.276;2023-08-06T03:00:07;5.22;;;1.63;;
64738;SDS011;51175;51.186;0.276;2023-08-06T03:00:39;4.30;;;2.00;;
64738;SDS011;51175;51.186;0.276;2023-08-06T03:01:09;3.50;;;1.58;;
64738;SDS011;51175;51.186;0.276;2023-08-06T03:01:40;2.70;;;2.08;;
64738;SDS011;51175;51.186;0.276;2023-08-06T03:02:10;3.05;;;1.58;;
64738;SDS011;51175;51.186;0.276;2023-08-06T03:02:40;2.40;;;1.92;;
64738;SDS011;51175;51.186;0.276;2023-08-06T03:03:11;3.60;;;1.38;;
64738;SDS011;51175;51.186;0.276;2023-08-06T03:03:41;5.47;;;1.75;;
64738;SDS011;51175;51.186;0.276;2023-08-06T03:04:11;3.85;;;2.08;;
64738;SDS011;51175;51.186;0.276;2023-08-06T03:04:42;3.05;;;1.65;;
64738;SDS011;51175;51.186;0.276;2023-08-06T03:05:12;2.95;;;2.00;;
64738;SDS011;51175;51.186;0.276;2023-08-06T03:05:50;3.97;;;1.60;;
64738;SDS011;51175;51.186;0.276;2023-08-06T03:06:22;2.80;;;1.45;;
64738;SDS011;51175;51.186;0.276;2023-08-06T03:06:52;2.10;;;1.50;;
64738;SDS011;51175;51.186;0.276;2023-08-06T03:07:22;3.17;;;1.85;;
64738;SDS011;51175;51.186;0.276;2023-08-06T03:07:53;3.13;;;1.90;;
64738;SDS011;51175;51.186;0.276;2023-08-06T03:08:23;4.25;;;2.00;;
64738;SDS011;51175;51.186;0.276;2023-08-06T03:08:53;3.72;;;2.20;;
64738;SDS011;51175;51.186;0.276;2023-08-06T03:09:24;4.47;;;1.85;;
64738;SDS011;51175;51.186;0.276;2023-08-06T03:09:54;3.10;;;1.65;;
64738;SDS011;51175;51.186;0.276;2023-08-06T03:10:25;3.67;;;1.58;;
64738;SDS011;51175;51.186;0.276;2023-08-06T03:10:55;2.33;;;1.52;;
64738;SDS011;51175;51.186;0.276;2023-08-06T03:11:25;3.15;;;1.50;;
64738;SDS011;51175;51.186;0.276;2023-08-06T03:11:56;4.15;;;1.92;;
64738;SDS011;51175;51.186;0.276;2023-08-06T03:12:27;2.10;;;1.38;;
64738;SDS011;51175;51.186;0.276;2023-08-06T03:12:57;3.50;;;1.90;;
64738;SDS011;51175;51.186;0.276;2023-08-06T03:13:27;3.90;;;1.75;;